Terminal Aerodrome Forecast
Issued by NWS

Current Version | Previous Version | Text Only | Print | Product List | Glossary On
Versions: 1 2 3 4 5 6 7 8 9 10 11 12 13 14
000
FTUS45 KVEF 010500
TAFDAG
TAF
KDAG 010520Z 0106/0206 27007KT P6SM SKC
     FM011800 04010G18KT P6SM SKC
     FM020200 VRB04KT P6SM SKC=

USA.gov is the U.S. government's official web portal to all federal, state and local government web resources and services.